Terminal Aerodrome Forecast
Issued by NWS Cleveland, OH

Home | Current Version | Previous Version | Text Only | Print | Product List | Glossary Off
Versions: 1 2 3 4 5 6 7 8 9 10 11 12 13 14 15

634
FTUS41 KCLE 241413 AAA
TAFYNG
TAF AMD
KYNG 241413Z 2414/2512 33005KT P6SM SCT007 BKN020
      TEMPO 2414/2415 BKN007
     FM241800 31012KT P6SM BKN025
     FM250500 35005KT P6SM SCT020=

USA.gov is the U.S. government's official web portal to all federal, state and local government web resources and services.